首页
METAR-TAF:

METAR-TAF

机场 :

Schefferville, 魁北克, 加拿大

纬度: 54-48N, 经度: 066-48W, 海拔: 521米

当前天气观测

该预报发布于54分钟前的00:00 UTC
风速9节,风向西,有时为16节阵风
温度 10°C
湿度 76%
气压 1005 hPa
能見度: 14.5公里
多云层高于3700英尺
多云层高于4400英尺

METAR: CYKL 210000Z AUTO 26009G16KT 9SM BKN037 BKN044 10/06 A2967 RMK SLP064

时间: 20:54 (00:54 UTC)

预报

该预报发布于5小时和14分钟前的19:40 UTC
预报有效从20日的 20点(UTC)到 21日的 08点(UTC)
风速15节,风向西,有时为25节阵风
能見度: 10公里
阴天层高于4000英尺
短暂存在
从 20日的 20点(UTC)到 21日的 03点(UTC)
能見度: 8.0公里
阴天层高于2000英尺
阵雨
几率 30%
从 20日的 23点(UTC)到 21日的 01点(UTC)
风速20节,风向多变,有时为30节阵风
能見度: 3.2公里
多云层高于900英尺
阴天层高于2000英尺, 积雨云.
雷暴, 雨, 轻雾
从 21日的 0300点(UTC)
风速7节,风向西南
能見度: 8.0公里
阴天层高于2000英尺
小阵雨, 轻雾
短暂存在
从 21日的 03点(UTC)到 21日的 06点(UTC)
能見度: 10公里
阴天层高于3000英尺
从 21日的 0600点(UTC)
风速5节,风向东转东北
能見度: 6.4公里
阴天层高于1200英尺
小阵雨, 轻雾
几率 30%
从 21日的 06点(UTC)到 21日的 08点(UTC)
多云层高于800英尺

TAF: CYKL 201940Z 2020/2108 26015G25KT P6SM OVC040 TEMPO 2020/2103 5SM SHRA OVC020 PROB30 2023/2101 VRB20G30KT 2SM TSRA BR BKN009 OVC020CB FM210300 22007KT 5SM -SHRA BR OVC020 TEMPO 2103/2106 P6SM NSW OVC030 FM210600 06005KT 4SM -SHRA BR OVC012 PROB30 2106/2108 BKN008 RMK FCST BASED ON AUTO OBS. NXT FCST BY 210200Z

超过4000个机场的气象观测和天气预报(METAR&TAF报告)。

可查询的气象台以黄色和红色小点在地图上表示。

将鼠标移到小点上方,可查看气象台名称。

然后点击查看天气观测和预报。

如需切换地图:点击带黑十字的绿色按钮放大地图;点击带横线的绿色按钮缩小地图;或者点击绿色箭头查看邻近地区的地图。


METAR-TAF: